Terminal Aerodrome Forecast
Issued by NWS

Home | Current Version | Previous Version | Graphics & Text | Print | Product List | Glossary On
Versions: 1 2 3 4 5 6 7 8 9 10 11 12 13 14 15 16 17 18 19 20 21
000
FTUS43 KOAX 251248 AAA
TAFCDR
TAF AMD
KCDR 251248Z 2513/2612 VRB04KT P6SM BKN050
     FM251400 04014KT P6SM OVC008
     FM251800 01016G26KT 1SM -SN OVC006
     FM260400 01007KT 3SM -SN OVC009=

USA.gov is the U.S. government's official web portal to all federal, state and local government web resources and services.